Galicia — ECEC — position and weather

sailwx.info

Track history (hours):
 
Tides and Currents Weather Stations Pressure Air Temp Water Temp Dewpoint Dewpoint Depression Visibility Wind Speed Wind Dir Waves Ship Positions

Galicia

Last reported at 2015-Jan-27 13:32 UTC. Time now 2015-Jan-27 14:30 UTC.
Position N 51°19' E 003°14'.

Length 149 m; draft 5.4 m.

Type: Cargo ship. MMSI: 224548000.

Date/timePositionNaut miles runAvg speedWind from/ knotsBaromVisibWave heightAir tempDewpointWater temp
2015-Jan-27 13:32N 51°19' E 003°14'0 0.0
2015-Jan-27 12:32N 51°19' E 003°14'0 0.0
2015-Jan-27 11:32N 51°19' E 003°14'0 0.0
2015-Jan-27 10:32N 51°19' E 003°14'0 0.0
2015-Jan-27 09:32N 51°19' E 003°14'0 0.1
2015-Jan-27 08:33N 51°19' E 003°14'3 3.3
2015-Jan-27 07:33N 51°22' E 003°12'1010.1
2015-Jan-27 06:33N 51°22' E 002°55'1311.9
2015-Jan-27 05:29N 51°22' E 002°35'1411.9
2015-Jan-27 04:17N 51°16' E 002°14'912.9
2015-Jan-27 03:34N 51°12' E 002°01'1514.6
2015-Jan-27 02:33N 51°03' E 001°42'1313.4
2015-Jan-27 01:33N 50°53' E 001°28'7511.8
2015-Jan-26 19:09N 50°28' W 000°24'813.9
2015-Jan-26 18:33N 50°32' W 000°36'1313.4
2015-Jan-26 17:33N 50°39' W 000°54'1312.8
2015-Jan-26 16:34N 50°46' W 001°10'1111.0
2015-Jan-26 15:34N 50°53' W 001°24'1 0.5
2015-Jan-26 12:20N 50°54' W 001°26'0 0.0
2015-Jan-26 07:08N 50°54' W 001°26'0 0.0
2015-Jan-26 06:23N 50°54' W 001°26'0 0.0
2015-Jan-26 05:32N 50°54' W 001°26'0 0.0
2015-Jan-26 04:32N 50°54' W 001°26'0 0.0
2015-Jan-26 03:32N 50°54' W 001°26'0 0.0
2015-Jan-26 02:29N 50°54' W 001°26'0 0.0
2015-Jan-26 01:32N 50°54' W 001°26'5 4.9
2015-Jan-26 00:33N 50°51' W 001°20'8 7.8
2015-Jan-25 23:33N 50°46' W 001°10'1010.2
2015-Jan-25 22:33N 50°40' W 000°58'1616.1
2015-Jan-25 21:32N 50°26' W 001°13'  
2015-Jan-23 14:11N 39°12' W 009°49'1213.5
2015-Jan-23 13:19N 38°60' W 009°50'1013.4
2015-Jan-23 12:33N 38°50' W 009°51'1513.1
2015-Jan-23 11:24N 38°35' W 009°48'1212.9
2015-Jan-23 10:28N 38°23' W 009°45'1612.8
2015-Jan-23 09:13N 38°07' W 009°41'913.0
2015-Jan-23 08:33N 37°59' W 009°38'1313.2
2015-Jan-23 07:33N 37°46' W 009°34'22012.1
2015-Jan-22 13:17N 35°58' W 005°34'1013.2
2015-Jan-22 12:34N 36°01' W 005°23'225 9.3
2015-Jan-21 12:25N 37°17' W 000°58'910.3
2015-Jan-21 11:33N 37°23' W 000°50'1310.7
2015-Jan-21 10:19N 37°31' W 000°38'910.8
2015-Jan-21 09:29N 37°38' W 000°30'1210.3
2015-Jan-21 08:19N 37°48' W 000°22'910.0
2015-Jan-21 07:26N 37°56' W 000°16'89 8.1
2015-Jan-20 20:22N 39°25' W 000°13'5 5.8
2015-Jan-20 19:33N 39°26' W 000°18'0 0.0
2015-Jan-20 18:33N 39°26' W 000°18'0 0.0
2015-Jan-20 17:27N 39°26' W 000°18'0 0.0
2015-Jan-20 16:33N 39°26' W 000°18'0 0.0
2015-Jan-20 15:21N 39°26' W 000°18'0 0.0
2015-Jan-20 14:27N 39°26' W 000°18'0 0.0
2015-Jan-20 11:03N 39°26' W 000°18'0 0.0
2015-Jan-20 10:33N 39°26' W 000°18'0 0.0
2015-Jan-20 09:21N 39°26' W 000°18'0 0.0
2015-Jan-20 08:27N 39°26' W 000°18'3 2.7
2015-Jan-20 07:23N 39°23' W 000°18'0 0.0
2015-Jan-20 03:05N 39°23' W 000°18'0 0.0
2015-Jan-20 02:33N 39°23' W 000°18'0 0.0
2015-Jan-19 22:32N 39°23' W 000°18'0 0.1
2015-Jan-19 21:26N 39°23' W 000°18'0 0.0
2015-Jan-19 20:32N 39°23' W 000°18'0 0.0
2015-Jan-19 19:32N 39°23' W 000°18'0 0.0
2015-Jan-19 18:32N 39°23' W 000°18'0 0.0
2015-Jan-19 17:17N 39°23' W 000°18'0 0.0
2015-Jan-19 14:32N 39°23' W 000°18'0 0.0
2015-Jan-19 13:26N 39°23' W 000°18'0 0.0
2015-Jan-19 12:29N 39°23' W 000°18'0 0.0
2015-Jan-19 11:23N 39°23' W 000°18'0 0.0
2015-Jan-19 10:26N 39°23' W 000°18'0 0.1
2015-Jan-19 09:26N 39°23' W 000°18'0 0.1
2015-Jan-19 08:32N 39°23' W 000°18'0 0.0
2015-Jan-19 07:22N 39°23' W 000°18'0 0.0
2015-Jan-19 06:25N 39°23' W 000°18'0 0.1
2015-Jan-19 05:31N 39°23' W 000°18'0 0.1
2015-Jan-19 04:13N 39°23' W 000°18'0 0.0
2015-Jan-19 03:16N 39°23' W 000°18'0 0.0
2015-Jan-19 01:31N 39°23' W 000°17'0 0.0
2015-Jan-19 00:22N 39°23' W 000°17'0 0.0
2015-Jan-18 23:10N 39°23' W 000°17'0 0.0
2015-Jan-18 19:28N 39°23' W 000°18'0 0.0
2015-Jan-18 18:31N 39°23' W 000°17'0 0.0
2015-Jan-18 16:25N 39°23' W 000°18'0 0.0
2015-Jan-18 13:22N 39°23' W 000°18'0 0.0
2015-Jan-18 11:22N 39°23' W 000°17'0 0.0
2015-Jan-18 10:31N 39°23' W 000°17'0 0.0
2015-Jan-18 09:31N 39°23' W 000°17'0 0.0
2015-Jan-18 08:31N 39°23' W 000°17'0 0.0
2015-Jan-18 07:28N 39°23' W 000°17'0 0.0
2015-Jan-18 05:22N 39°23' W 000°17'0 0.0
2015-Jan-18 04:22N 39°23' W 000°17'0 0.0
2015-Jan-18 03:31N 39°23' W 000°18'0 0.0
2015-Jan-18 02:31N 39°23' W 000°18'0 0.0
2015-Jan-18 01:28N 39°23' W 000°17'0 0.0
2015-Jan-18 00:31N 39°23' W 000°18'0 0.0
2015-Jan-17 23:09N 39°23' W 000°18'0 0.0
2015-Jan-17 22:09N 39°23' W 000°18'0 0.0
2015-Jan-17 20:15N 39°23' W 000°18'  
Track history (hours):
 
Tides and Currents Weather Stations Pressure Air Temp Water Temp Dewpoint Dewpoint Depression Visibility Wind Speed Wind Dir Waves Ship Positions

Galicia

Last reported at 2015-Jan-27 13:32 UTC. Time now 2015-Jan-27 14:30 UTC.
Position N 51°19' E 003°14'.

Length 149 m; draft 5.4 m.

Type: Cargo ship. MMSI: 224548000.

Date/timePositionNaut miles runAvg speedWind from/ knotsBaromVisibWave heightAir tempDewpointWater temp
2015-Jan-27 13:32N 51°19' E 003°14'0 0.0
2015-Jan-27 12:32N 51°19' E 003°14'0 0.0
2015-Jan-27 11:32N 51°19' E 003°14'0 0.0
2015-Jan-27 10:32N 51°19' E 003°14'0 0.0
2015-Jan-27 09:32N 51°19' E 003°14'0 0.1
2015-Jan-27 08:33N 51°19' E 003°14'3 3.3
2015-Jan-27 07:33N 51°22' E 003°12'1010.1
2015-Jan-27 06:33N 51°22' E 002°55'1311.9
2015-Jan-27 05:29N 51°22' E 002°35'1411.9
2015-Jan-27 04:17N 51°16' E 002°14'912.9
2015-Jan-27 03:34N 51°12' E 002°01'1514.6
2015-Jan-27 02:33N 51°03' E 001°42'1313.4
2015-Jan-27 01:33N 50°53' E 001°28'7511.8
2015-Jan-26 19:09N 50°28' W 000°24'813.9
2015-Jan-26 18:33N 50°32' W 000°36'1313.4
2015-Jan-26 17:33N 50°39' W 000°54'1312.8
2015-Jan-26 16:34N 50°46' W 001°10'1111.0
2015-Jan-26 15:34N 50°53' W 001°24'1 0.5
2015-Jan-26 12:20N 50°54' W 001°26'0 0.0
2015-Jan-26 07:08N 50°54' W 001°26'0 0.0
2015-Jan-26 06:23N 50°54' W 001°26'0 0.0
2015-Jan-26 05:32N 50°54' W 001°26'0 0.0
2015-Jan-26 04:32N 50°54' W 001°26'0 0.0
2015-Jan-26 03:32N 50°54' W 001°26'0 0.0
2015-Jan-26 02:29N 50°54' W 001°26'0 0.0
2015-Jan-26 01:32N 50°54' W 001°26'5 4.9
2015-Jan-26 00:33N 50°51' W 001°20'8 7.8
2015-Jan-25 23:33N 50°46' W 001°10'1010.2
2015-Jan-25 22:33N 50°40' W 000°58'1616.1
2015-Jan-25 21:32N 50°26' W 001°13'  
2015-Jan-23 14:11N 39°12' W 009°49'1213.5
2015-Jan-23 13:19N 38°60' W 009°50'1013.4
2015-Jan-23 12:33N 38°50' W 009°51'1513.1
2015-Jan-23 11:24N 38°35' W 009°48'1212.9
2015-Jan-23 10:28N 38°23' W 009°45'1612.8
2015-Jan-23 09:13N 38°07' W 009°41'913.0
2015-Jan-23 08:33N 37°59' W 009°38'1313.2
2015-Jan-23 07:33N 37°46' W 009°34'22012.1
2015-Jan-22 13:17N 35°58' W 005°34'1013.2
2015-Jan-22 12:34N 36°01' W 005°23'225 9.3
2015-Jan-21 12:25N 37°17' W 000°58'910.3
2015-Jan-21 11:33N 37°23' W 000°50'1310.7
2015-Jan-21 10:19N 37°31' W 000°38'910.8
2015-Jan-21 09:29N 37°38' W 000°30'1210.3
2015-Jan-21 08:19N 37°48' W 000°22'910.0
2015-Jan-21 07:26N 37°56' W 000°16'89 8.1
2015-Jan-20 20:22N 39°25' W 000°13'5 5.8
2015-Jan-20 19:33N 39°26' W 000°18'0 0.0
2015-Jan-20 18:33N 39°26' W 000°18'0 0.0
2015-Jan-20 17:27N 39°26' W 000°18'0 0.0
2015-Jan-20 16:33N 39°26' W 000°18'0 0.0
2015-Jan-20 15:21N 39°26' W 000°18'0 0.0
2015-Jan-20 14:27N 39°26' W 000°18'0 0.0
2015-Jan-20 11:03N 39°26' W 000°18'0 0.0
2015-Jan-20 10:33N 39°26' W 000°18'0 0.0
2015-Jan-20 09:21N 39°26' W 000°18'0 0.0
2015-Jan-20 08:27N 39°26' W 000°18'3 2.7
2015-Jan-20 07:23N 39°23' W 000°18'0 0.0
2015-Jan-20 03:05N 39°23' W 000°18'0 0.0
2015-Jan-20 02:33N 39°23' W 000°18'0 0.0
2015-Jan-19 22:32N 39°23' W 000°18'0 0.1
2015-Jan-19 21:26N 39°23' W 000°18'0 0.0
2015-Jan-19 20:32N 39°23' W 000°18'0 0.0
2015-Jan-19 19:32N 39°23' W 000°18'0 0.0
2015-Jan-19 18:32N 39°23' W 000°18'0 0.0
2015-Jan-19 17:17N 39°23' W 000°18'0 0.0
2015-Jan-19 14:32N 39°23' W 000°18'0 0.0
2015-Jan-19 13:26N 39°23' W 000°18'0 0.0
2015-Jan-19 12:29N 39°23' W 000°18'0 0.0
2015-Jan-19 11:23N 39°23' W 000°18'0 0.0
2015-Jan-19 10:26N 39°23' W 000°18'0 0.1
2015-Jan-19 09:26N 39°23' W 000°18'0 0.1
2015-Jan-19 08:32N 39°23' W 000°18'0 0.0
2015-Jan-19 07:22N 39°23' W 000°18'0 0.0
2015-Jan-19 06:25N 39°23' W 000°18'0 0.1
2015-Jan-19 05:31N 39°23' W 000°18'0 0.1
2015-Jan-19 04:13N 39°23' W 000°18'0 0.0
2015-Jan-19 03:16N 39°23' W 000°18'0 0.0
2015-Jan-19 01:31N 39°23' W 000°17'0 0.0
2015-Jan-19 00:22N 39°23' W 000°17'0 0.0
2015-Jan-18 23:10N 39°23' W 000°17'0 0.0
2015-Jan-18 19:28N 39°23' W 000°18'0 0.0
2015-Jan-18 18:31N 39°23' W 000°17'0 0.0
2015-Jan-18 16:25N 39°23' W 000°18'0 0.0
2015-Jan-18 13:22N 39°23' W 000°18'0 0.0
2015-Jan-18 11:22N 39°23' W 000°17'0 0.0
2015-Jan-18 10:31N 39°23' W 000°17'0 0.0
2015-Jan-18 09:31N 39°23' W 000°17'0 0.0
2015-Jan-18 08:31N 39°23' W 000°17'0 0.0
2015-Jan-18 07:28N 39°23' W 000°17'0 0.0
2015-Jan-18 05:22N 39°23' W 000°17'0 0.0
2015-Jan-18 04:22N 39°23' W 000°17'0 0.0
2015-Jan-18 03:31N 39°23' W 000°18'0 0.0
2015-Jan-18 02:31N 39°23' W 000°18'0 0.0
2015-Jan-18 01:28N 39°23' W 000°17'0 0.0
2015-Jan-18 00:31N 39°23' W 000°18'0 0.0
2015-Jan-17 23:09N 39°23' W 000°18'0 0.0
2015-Jan-17 22:09N 39°23' W 000°18'0 0.0
2015-Jan-17 20:15N 39°23' W 000°18'  

Dump ship's entire track history